createdAt,value
2022-11-13T00:02:33.690Z,3.05
2022-11-13T00:07:35.168Z,3.00
2022-11-13T00:12:36.675Z,3.38
2022-11-13T00:17:38.231Z,3.92
2022-11-13T00:22:39.745Z,3.38
2022-11-13T00:27:41.166Z,3.53
2022-11-13T00:32:42.722Z,2.53
2022-11-13T00:37:44.147Z,2.90
2022-11-13T00:42:45.663Z,2.58
2022-11-13T00:47:47.172Z,2.42
2022-11-13T00:52:48.552Z,3.17
2022-11-13T00:57:50.073Z,2.75
2022-11-13T01:02:51.645Z,3.42
2022-11-13T01:07:53.357Z,2.90
2022-11-13T01:12:54.868Z,2.55
2022-11-13T01:17:56.558Z,2.65
2022-11-13T01:22:57.963Z,1.90
2022-11-13T01:27:59.579Z,2.28
2022-11-13T01:33:01.078Z,2.30
2022-11-13T01:38:02.457Z,3.47
2022-11-13T01:43:27.048Z,3.35
2022-11-13T01:48:45.857Z,2.80
2022-11-13T01:53:48.033Z,2.40
2022-11-13T01:58:54.785Z,2.05
2022-11-13T02:03:56.267Z,2.35
2022-11-13T02:08:57.842Z,2.83
2022-11-13T02:14:00.483Z,1.75
2022-11-13T02:19:07.563Z,2.30
2022-11-13T02:24:32.751Z,2.53
2022-11-13T02:29:34.542Z,2.43
2022-11-13T02:34:36.008Z,2.75
2022-11-13T02:39:37.495Z,2.78
2022-11-13T02:44:38.968Z,2.95
2022-11-13T02:49:40.551Z,3.20
2022-11-13T02:54:41.989Z,2.42
2022-11-13T02:59:43.865Z,2.97
2022-11-13T03:05:10.776Z,2.83
2022-11-13T03:10:07.407Z,3.17
2022-11-13T03:15:09.483Z,3.05
2022-11-13T03:20:10.945Z,2.67
2022-11-13T03:25:12.431Z,2.00
2022-11-13T03:30:14.542Z,1.60
2022-11-13T03:35:16.064Z,2.38
2022-11-13T03:40:17.847Z,2.25
2022-11-13T03:45:19.315Z,2.80
2022-11-13T03:50:20.926Z,1.50
2022-11-13T03:55:22.406Z,1.90
2022-11-13T04:00:25.815Z,2.88
2022-11-13T04:05:27.652Z,2.08
2022-11-13T04:10:29.437Z,2.03
2022-11-13T04:15:30.925Z,1.67
2022-11-13T04:20:32.585Z,1.90
2022-11-13T04:25:34.007Z,1.30
2022-11-13T04:30:35.518Z,1.92
2022-11-13T04:35:37.011Z,2.33
2022-11-13T04:40:39.106Z,2.20
2022-11-13T04:45:40.548Z,2.30
2022-11-13T04:50:42.112Z,2.28
2022-11-13T04:55:43.532Z,1.40
2022-11-13T05:00:44.936Z,2.80
2022-11-13T05:05:46.524Z,1.67
2022-11-13T05:10:47.927Z,1.25
2022-11-13T05:15:49.448Z,1.35
2022-11-13T05:20:50.919Z,1.30
2022-11-13T05:25:53.217Z,0.90
2022-11-13T05:31:06.192Z,1.13
2022-11-13T05:36:15.128Z,1.05
2022-11-13T05:41:21.498Z,0.70
2022-11-13T05:46:25.608Z,1.35
2022-11-13T05:51:30.267Z,0.70
2022-11-13T05:56:35.282Z,1.10
2022-11-13T06:01:38.684Z,0.70
2022-11-13T06:06:40.330Z,0.88
2022-11-13T06:11:41.812Z,0.68
2022-11-13T06:16:43.240Z,0.43
2022-11-13T06:21:44.808Z,0.65
2022-11-13T06:26:46.234Z,0.60
2022-11-13T06:31:47.635Z,0.93
2022-11-13T06:36:49.087Z,0.65
2022-11-13T06:41:50.575Z,0.98
2022-11-13T06:46:51.963Z,0.95
2022-11-13T06:51:53.467Z,1.70
2022-11-13T06:56:54.925Z,0.85
2022-11-13T07:01:56.304Z,1.08
2022-11-13T07:06:58.077Z,1.13
2022-11-13T07:11:59.541Z,1.63
2022-11-13T07:17:10.046Z,1.00
2022-11-13T07:22:11.940Z,1.35
2022-11-13T07:27:13.359Z,1.13
2022-11-13T07:32:14.762Z,0.90
2022-11-13T07:37:16.405Z,0.90
2022-11-13T07:42:17.817Z,0.60
2022-11-13T07:47:19.250Z,0.98
2022-11-13T07:52:20.640Z,1.10
2022-11-13T07:57:22.129Z,0.88
2022-11-13T08:02:26.757Z,0.60
2022-11-13T08:07:28.395Z,1.25
2022-11-13T08:12:29.847Z,0.90
2022-11-13T08:17:31.443Z,0.57
2022-11-13T08:22:33.450Z,1.02
2022-11-13T08:27:34.877Z,1.90
2022-11-13T08:32:36.314Z,1.25
2022-11-13T08:37:37.736Z,1.75
2022-11-13T08:42:39.163Z,1.30
2022-11-13T08:47:40.638Z,1.33
2022-11-13T08:52:42.036Z,1.70
2022-11-13T08:57:43.460Z,2.05
2022-11-13T09:02:45.439Z,1.58
2022-11-13T09:07:47.272Z,1.20
2022-11-13T09:12:48.873Z,1.45
2022-11-13T09:17:50.358Z,0.98
2022-11-13T09:23:02.972Z,0.95
2022-11-13T09:28:05.434Z,2.10
2022-11-13T09:33:07.326Z,1.73
2022-11-13T09:38:14.496Z,1.60
2022-11-13T09:43:25.029Z,1.83
2022-11-13T09:48:46.675Z,1.80
2022-11-13T09:53:48.549Z,1.83
2022-11-13T09:59:00.722Z,2.53
2022-11-13T10:04:11.961Z,1.98
2022-11-13T10:09:27.250Z,1.73
2022-11-13T10:14:34.335Z,2.15
2022-11-13T10:19:58.967Z,1.90
2022-11-13T10:25:16.247Z,1.52
2022-11-13T10:30:19.296Z,1.40
2022-11-13T10:35:41.966Z,2.08
2022-11-13T10:40:43.721Z,1.63
2022-11-13T10:46:04.684Z,1.60
2022-11-13T10:51:27.427Z,1.92
2022-11-13T10:56:32.894Z,1.65
2022-11-13T11:01:35.675Z,1.35
2022-11-13T11:12:11.476Z,1.90
2022-11-13T11:17:16.659Z,1.00
2022-11-13T11:22:22.948Z,1.55
2022-11-13T11:27:39.902Z,1.48
2022-11-13T11:33:15.529Z,1.33
2022-11-13T11:38:29.497Z,1.00
2022-11-13T11:43:39.755Z,1.13
2022-11-13T11:48:41.531Z,1.20
2022-11-13T11:53:56.657Z,1.27
2022-11-13T11:59:18.928Z,1.73
2022-11-13T12:04:42.201Z,1.55
2022-11-13T12:09:46.718Z,1.08
2022-11-13T12:15:08.667Z,0.90
2022-11-13T12:20:19.254Z,1.00
2022-11-13T12:25:37.061Z,1.00
2022-11-13T12:31:15.811Z,1.02
2022-11-13T12:36:18.331Z,0.73
2022-11-13T12:41:30.099Z,0.65
2022-11-13T12:46:36.979Z,1.08
2022-11-13T12:51:40.431Z,0.75
2022-11-13T12:56:41.883Z,0.57
2022-11-13T13:02:01.207Z,0.75
2022-11-13T13:07:14.747Z,1.02
2022-11-13T13:12:31.219Z,0.50
2022-11-13T13:17:32.695Z,0.73
2022-11-13T13:22:35.704Z,0.77
2022-11-13T13:27:38.850Z,0.68
2022-11-13T13:33:18.647Z,0.80
2022-11-13T13:38:34.002Z,0.85
2022-11-13T13:43:57.800Z,0.68
2022-11-13T13:49:05.534Z,1.05
2022-11-13T13:54:09.449Z,0.40
2022-11-13T13:59:23.002Z,1.55
2022-11-13T14:04:27.072Z,0.90
2022-11-13T14:09:30.795Z,0.90
2022-11-13T14:14:32.864Z,0.50
2022-11-13T14:19:34.333Z,0.60
2022-11-13T14:24:48.598Z,0.38
2022-11-13T14:30:00.103Z,0.98
2022-11-13T14:35:05.301Z,0.47
2022-11-13T14:40:14.214Z,0.50
2022-11-13T14:45:17.671Z,0.90
2022-11-13T14:50:26.088Z,0.57
2022-11-13T14:55:33.697Z,0.40
2022-11-13T15:00:37.541Z,2.05
2022-11-13T15:05:38.971Z,0.57
2022-11-13T15:10:41.029Z,1.10
2022-11-13T15:15:43.062Z,1.85
2022-11-13T15:20:45.631Z,1.15
2022-11-13T15:25:47.065Z,1.20
2022-11-13T15:30:48.599Z,2.10
2022-11-13T15:35:50.049Z,1.35
2022-11-13T15:40:51.620Z,1.55
2022-11-13T15:45:53.031Z,1.70
2022-11-13T15:50:54.573Z,3.35
2022-11-13T15:55:56.071Z,1.23
2022-11-13T16:00:57.523Z,0.75
2022-11-13T16:05:59.630Z,1.00
2022-11-13T16:11:01.036Z,1.20
2022-11-13T16:16:02.580Z,0.80
2022-11-13T16:21:04.073Z,0.85
2022-11-13T16:26:06.318Z,0.52
2022-11-13T16:31:07.789Z,0.43
2022-11-13T16:36:18.485Z,1.27
2022-11-13T16:41:19.976Z,1.23
2022-11-13T16:46:35.809Z,0.95
2022-11-13T16:51:37.249Z,0.85
2022-11-13T16:56:38.776Z,0.82
2022-11-13T17:01:40.266Z,1.00
2022-11-13T17:06:41.887Z,0.90
2022-11-13T17:11:43.442Z,0.85
2022-11-13T17:16:44.866Z,1.15
2022-11-13T17:21:46.313Z,1.33
2022-11-13T17:26:47.749Z,1.17
2022-11-13T17:31:49.174Z,1.55
2022-11-13T17:36:50.683Z,1.40
2022-11-13T17:41:52.100Z,1.05
2022-11-13T17:46:53.556Z,0.47
2022-11-13T17:51:54.977Z,0.80
2022-11-13T17:56:56.411Z,0.85
2022-11-13T18:01:57.848Z,0.35
2022-11-13T18:06:59.533Z,0.52
2022-11-13T18:12:00.985Z,0.93
2022-11-13T18:17:02.553Z,0.50
2022-11-13T18:22:04.025Z,0.98
2022-11-13T18:27:06.311Z,0.38
2022-11-13T18:32:08.010Z,0.80
2022-11-13T18:37:09.490Z,0.52
2022-11-13T18:42:10.960Z,0.88
2022-11-13T18:47:12.359Z,0.43
2022-11-13T18:52:13.759Z,0.50
2022-11-13T18:57:15.386Z,0.50
2022-11-13T19:02:16.903Z,0.40
2022-11-13T19:07:18.448Z,0.77
2022-11-13T19:12:20.039Z,0.50
2022-11-13T19:17:21.513Z,0.77
2022-11-13T19:22:23.071Z,0.68
2022-11-13T19:27:24.527Z,1.05
2022-11-13T19:32:25.941Z,0.88
2022-11-13T19:37:27.396Z,1.30
2022-11-13T19:42:28.886Z,1.13
2022-11-13T19:47:30.453Z,0.60
2022-11-13T19:52:32.062Z,0.77
2022-11-13T19:57:33.485Z,0.75
2022-11-13T20:02:35.102Z,1.13
2022-11-13T20:07:36.690Z,0.75
2022-11-13T20:12:38.130Z,0.68
2022-11-13T20:17:39.568Z,0.82
2022-11-13T20:22:41.031Z,0.98
2022-11-13T20:27:47.145Z,1.85
2022-11-13T20:32:49.111Z,1.63
2022-11-13T20:37:50.574Z,1.77
2022-11-13T20:42:52.027Z,2.50
2022-11-13T20:47:53.472Z,2.03
2022-11-13T20:52:54.904Z,1.23
2022-11-13T20:57:56.845Z,1.42
2022-11-13T21:02:58.306Z,0.98
2022-11-13T21:07:59.909Z,1.75
2022-11-13T21:13:01.356Z,1.58
2022-11-13T21:18:02.996Z,1.63
2022-11-13T21:23:04.458Z,2.00
2022-11-13T21:28:06.369Z,2.05
2022-11-13T21:33:07.859Z,2.45
2022-11-13T21:38:09.363Z,2.10
2022-11-13T21:43:10.794Z,1.30
2022-11-13T21:48:12.256Z,2.22
2022-11-13T21:53:13.744Z,1.63
2022-11-13T21:58:15.199Z,2.38
2022-11-13T22:03:16.648Z,1.58
2022-11-13T22:08:18.126Z,1.52
2022-11-13T22:13:19.589Z,1.48
2022-11-13T22:18:21.282Z,2.17
2022-11-13T22:23:22.981Z,1.27
2022-11-13T22:28:24.405Z,2.70
2022-11-13T22:33:31.095Z,1.75
2022-11-13T22:38:36.750Z,2.38
2022-11-13T22:43:42.623Z,2.60
2022-11-13T22:53:55.379Z,1.33
2022-11-13T22:58:58.953Z,1.17
2022-11-13T23:04:02.645Z,1.85
2022-11-13T23:09:05.912Z,2.70
2022-11-13T23:14:11.435Z,1.63
2022-11-13T23:24:14.576Z,1.38
2022-11-13T23:29:15.950Z,0.95
2022-11-13T23:34:38.294Z,0.75
2022-11-13T23:39:38.793Z,1.83
2022-11-13T23:44:40.313Z,1.25
2022-11-13T23:49:41.766Z,0.75
2022-11-13T23:54:43.282Z,1.10
2022-11-13T23:59:44.714Z,1.17
